Terminal Aerodrome Forecast
Issued by NWS

Current Version | Previous Version | Graphics & Text | Print | Product List | Glossary On
Versions: 1 2 3 4 5 6 7 8 9 10 11 12 13 14 15 16 17 18 19 20
000
FTUS41 KILN 250200 AAA
TAFLUK
TAF AMD
KLUK 250212Z 2502/2524 27013G19KT P6SM VCSH BKN022 OVC030
     FM250800 25012G20KT P6SM VCSH OVC025
     FM251300 23010KT P6SM BKN025=

USA.gov is the U.S. government's official web portal to all federal, state and local government web resources and services.